createdAt,value
2019-04-10T00:05:44.536Z,15.35
2019-04-10T00:11:49.361Z,15.53
2019-04-10T00:17:53.720Z,16.90
2019-04-10T00:23:57.942Z,15.95
2019-04-10T00:30:02.917Z,16.55
2019-04-10T00:36:07.917Z,16.30
2019-04-10T00:42:12.776Z,16.37
2019-04-10T00:48:17.500Z,18.20
2019-04-10T00:54:21.797Z,20.15
2019-04-10T01:00:26.705Z,20.85
2019-04-10T01:06:31.043Z,21.48
2019-04-10T01:12:36.325Z,22.45
2019-04-10T01:18:41.590Z,22.10
2019-04-10T01:24:46.114Z,22.67
2019-04-10T01:30:50.729Z,22.15
2019-04-10T01:36:55.097Z,23.77
2019-04-10T01:43:07.158Z,23.18
2019-04-10T01:49:05.448Z,22.93
2019-04-10T01:55:20.161Z,23.45
2019-04-10T02:01:20.711Z,24.45
2019-04-10T02:07:25.047Z,23.85
2019-04-10T02:13:29.699Z,23.85
2019-04-10T02:19:34.361Z,22.82
2019-04-10T02:25:39.096Z,23.52
2019-04-10T02:31:44.175Z,24.12
2019-04-10T02:37:52.447Z,24.40
2019-04-10T02:43:55.564Z,23.50
2019-04-10T02:50:00.688Z,22.75
2019-04-10T02:56:05.485Z,22.17
2019-04-10T03:02:09.868Z,22.05
2019-04-10T03:08:15.843Z,21.52
2019-04-10T03:14:21.169Z,22.70
2019-04-10T03:20:26.546Z,22.05
2019-04-10T03:26:32.033Z,22.17
2019-04-10T03:33:18.582Z,21.33
2019-04-10T03:39:19.867Z,21.15
2019-04-10T03:45:24.433Z,21.50
2019-04-10T03:51:28.769Z,21.65
2019-04-10T03:57:36.455Z,21.60
2019-04-10T04:03:40.834Z,21.93
2019-04-10T04:09:46.001Z,20.70
2019-04-10T04:15:50.670Z,21.97
2019-04-10T04:21:55.076Z,21.33
2019-04-10T04:28:00.394Z,22.97
2019-04-10T04:34:04.820Z,21.03
2019-04-10T04:40:09.198Z,22.58
2019-04-10T04:46:14.126Z,21.67
2019-04-10T04:52:18.439Z,19.87
2019-04-10T04:58:22.944Z,20.47
2019-04-10T05:04:27.294Z,20.93
2019-04-10T05:10:31.557Z,21.52
2019-04-10T05:16:36.333Z,23.50
2019-04-10T05:22:41.633Z,22.53
2019-04-10T05:28:46.666Z,21.40
2019-04-10T05:34:50.958Z,22.23
2019-04-10T05:40:55.256Z,21.87
2019-04-10T05:46:59.586Z,22.23
2019-04-10T05:53:04.359Z,22.33
2019-04-10T05:59:10.811Z,21.80
2019-04-10T06:05:16.204Z,21.27
2019-04-10T06:11:20.606Z,20.50
2019-04-10T06:17:24.932Z,19.33
2019-04-10T06:23:29.605Z,19.80
2019-04-10T06:29:35.025Z,20.67
2019-04-10T06:35:39.862Z,19.17
2019-04-10T06:41:44.282Z,18.60
2019-04-10T06:47:48.725Z,17.80
2019-04-10T06:54:00.865Z,17.80
2019-04-10T06:59:59.797Z,15.70
2019-04-10T07:06:12.485Z,16.30
2019-04-10T07:12:12.168Z,15.50
2019-04-10T07:18:18.924Z,14.40
2019-04-10T07:24:22.895Z,13.50
2019-04-10T07:30:28.012Z,13.53
2019-04-10T07:36:32.918Z,12.63
2019-04-10T07:42:40.291Z,12.00
2019-04-10T07:48:43.586Z,11.37
2019-04-10T07:54:48.164Z,11.28
2019-04-10T08:00:53.310Z,11.37
2019-04-10T08:06:58.754Z,11.10
2019-04-10T08:13:03.095Z,10.58
2019-04-10T08:19:08.249Z,9.55
2019-04-10T08:25:12.782Z,10.53
2019-04-10T08:31:17.095Z,11.03
2019-04-10T08:37:21.381Z,10.53
2019-04-10T08:43:26.623Z,10.20
2019-04-10T08:49:30.980Z,9.58
2019-04-10T08:55:35.747Z,9.55
2019-04-10T09:01:40.048Z,9.43
2019-04-10T09:07:44.339Z,10.28
2019-04-10T09:13:48.706Z,9.45
2019-04-10T09:19:54.012Z,10.55
2019-04-10T09:25:59.567Z,10.05
2019-04-10T09:32:04.370Z,10.43
2019-04-10T09:38:08.795Z,10.48
2019-04-10T09:44:13.092Z,11.25
2019-04-10T09:50:17.488Z,10.93
2019-04-10T09:56:22.403Z,11.18
2019-04-10T10:02:27.459Z,11.55
2019-04-10T10:08:31.774Z,11.08
2019-04-10T10:14:35.993Z,11.38
2019-04-10T10:20:40.384Z,11.28
2019-04-10T10:26:46.483Z,13.13
2019-04-10T10:32:51.034Z,12.37
2019-04-10T10:39:05.284Z,12.33
2019-04-10T10:45:02.793Z,12.15
2019-04-10T10:51:07.274Z,12.70
2019-04-10T10:57:13.087Z,13.10
2019-04-10T11:03:18.195Z,12.95
2019-04-10T11:09:22.463Z,13.25
2019-04-10T11:15:27.766Z,12.98
2019-04-10T11:21:32.454Z,12.23
2019-04-10T11:27:36.785Z,11.80
2019-04-10T11:33:41.241Z,12.75
2019-04-10T11:39:48.152Z,12.37
2019-04-10T11:45:54.553Z,12.15
2019-04-10T11:52:00.081Z,12.23
2019-04-10T11:58:05.532Z,11.75
2019-04-10T12:04:10.874Z,12.85
2019-04-10T12:16:21.452Z,13.80
2019-04-10T12:22:25.742Z,13.20
2019-04-10T12:28:30.166Z,12.95
2019-04-10T12:34:34.524Z,13.03
2019-04-10T12:40:40.410Z,12.98
2019-04-10T12:46:45.671Z,12.73
2019-04-10T12:52:51.207Z,13.10
2019-04-10T12:58:57.154Z,11.65
2019-04-10T13:05:02.926Z,12.25
2019-04-10T13:11:07.832Z,13.25
2019-04-10T13:17:12.540Z,11.43
2019-04-10T13:23:17.817Z,12.15
2019-04-10T13:29:22.540Z,12.43
2019-04-10T13:35:26.902Z,12.40
2019-04-10T13:41:31.203Z,12.28
2019-04-10T13:47:35.585Z,12.58
2019-04-10T13:53:39.941Z,12.58
2019-04-10T13:59:44.980Z,12.58
2019-04-10T14:05:49.471Z,12.70
2019-04-10T14:11:53.891Z,10.93
2019-04-10T14:17:58.247Z,12.20
2019-04-10T14:24:04.120Z,12.18
2019-04-10T14:30:13.292Z,12.50
2019-04-10T14:36:18.009Z,11.93
2019-04-10T14:42:22.434Z,11.20
2019-04-10T14:48:27.903Z,11.63
2019-04-10T14:54:32.273Z,12.33
2019-04-10T15:00:49.623Z,11.55
2019-04-10T15:06:55.336Z,10.48
2019-04-10T15:13:09.196Z,10.98
2019-04-10T15:19:05.875Z,11.88
2019-04-10T15:25:10.861Z,6.65
2019-04-10T15:31:15.554Z,6.50
2019-04-10T15:37:20.735Z,6.45
2019-04-10T15:43:26.397Z,6.58
2019-04-10T15:49:31.138Z,5.53
2019-04-10T15:55:35.979Z,5.95
2019-04-10T16:01:41.345Z,5.85
2019-04-10T16:07:48.982Z,4.92
2019-04-10T16:13:54.955Z,5.10
2019-04-10T16:20:23.722Z,5.33
2019-04-10T16:26:29.276Z,4.40
2019-04-10T16:32:34.847Z,5.08
2019-04-10T16:38:39.213Z,5.53
2019-04-10T16:44:43.876Z,4.47
2019-04-10T16:50:48.531Z,4.37
2019-04-10T16:56:56.224Z,4.40
2019-04-10T17:03:01.792Z,4.35
2019-04-10T17:09:10.289Z,4.97
2019-04-10T17:15:15.704Z,4.47
2019-04-10T17:21:21.370Z,4.58
2019-04-10T17:27:29.814Z,4.00
2019-04-10T17:33:34.181Z,4.10
2019-04-10T17:39:39.623Z,4.67
2019-04-10T17:45:44.854Z,4.10
2019-04-10T17:51:50.224Z,4.17
2019-04-10T17:57:56.681Z,4.08
2019-04-10T18:04:03.419Z,3.35
2019-04-10T18:10:07.043Z,3.70
2019-04-10T18:16:12.586Z,4.10
2019-04-10T18:22:17.077Z,4.33
2019-04-10T18:28:33.431Z,3.85
2019-04-10T18:34:38.294Z,3.90
2019-04-10T18:40:52.180Z,4.03
2019-04-10T18:46:48.866Z,4.35
2019-04-10T18:52:53.939Z,3.83
2019-04-10T18:59:10.214Z,4.65
2019-04-10T19:05:17.888Z,4.65
2019-04-10T19:11:26.167Z,4.12
2019-04-10T19:17:28.170Z,4.22
2019-04-10T19:23:33.110Z,5.00
2019-04-10T19:29:38.277Z,4.45
2019-04-10T19:35:43.430Z,4.45
2019-04-10T19:41:48.760Z,4.92
2019-04-10T19:47:53.412Z,4.75
2019-04-10T19:53:57.710Z,4.45
2019-04-10T20:00:02.215Z,4.67
2019-04-10T20:06:06.478Z,4.67
2019-04-10T20:12:10.784Z,5.05
2019-04-10T20:18:15.076Z,5.62
2019-04-10T20:24:19.365Z,4.95
2019-04-10T20:30:25.810Z,4.92
2019-04-10T20:36:31.155Z,5.10
2019-04-10T20:42:35.782Z,5.40
2019-04-10T20:48:40.406Z,4.90
2019-04-10T20:54:46.876Z,5.72
2019-04-10T21:00:51.726Z,5.17
2019-04-10T21:06:56.597Z,5.20
2019-04-10T21:13:01.219Z,5.67
2019-04-10T21:19:06.662Z,5.30
2019-04-10T21:25:10.979Z,5.30
2019-04-10T21:31:36.362Z,4.87
2019-04-10T21:37:40.775Z,4.87
2019-04-10T21:43:45.201Z,5.67
2019-04-10T21:49:50.517Z,5.20
2019-04-10T21:55:55.756Z,4.87
2019-04-10T22:02:00.155Z,4.40
2019-04-10T22:08:35.364Z,4.00
2019-04-10T22:14:39.771Z,4.10
2019-04-10T22:20:44.271Z,3.70
2019-04-10T22:26:48.655Z,3.80
2019-04-10T22:32:53.457Z,4.00
2019-04-10T22:38:58.365Z,4.30
2019-04-10T22:45:02.788Z,4.03
2019-04-10T22:51:08.437Z,4.50
2019-04-10T22:57:13.177Z,4.37
2019-04-10T23:03:18.103Z,4.53
2019-04-10T23:09:22.510Z,4.40
2019-04-10T23:15:27.292Z,4.33
2019-04-10T23:21:32.451Z,4.57
2019-04-10T23:27:37.745Z,5.20
2019-04-10T23:33:42.015Z,4.40
2019-04-10T23:39:46.328Z,4.90
2019-04-10T23:45:50.690Z,4.83
2019-04-10T23:51:55.714Z,4.53
2019-04-10T23:58:00.104Z,4.77
